Thuis kapster nodig
Laat een bericht achter op deze site.




METAR rapporten vliegvelden

   
EBAW - Antwerp
Gewijzigd: 23-01-2020 23:50
Bewolking  
Bewolking  
   Wind: OZO 5.6 km/h
Wind: OZO 5.6 km/h
Temperatuur: 2°C
Voelt als: 1°C
Dauwpunt: 1°C
Vochtigheid: 93%
Barometer: 1026 hPa
Bewolking: Bewolking
Zicht: 1.4 km
Bewolking: Bewolking 200 ft
EBAW 232250Z AUTO 11003KT 080V140 1400 R11/1800D R29/1800N // OVC002/// 02/01 Q1026
EBLG - Li├Ęge
Gewijzigd: 23-01-2020 23:50
Nevel, Grotendeels bewolkt  
Nevel, Grotendeels bewolkt  
   Wind: varieert 3.7 km/h
Wind: varieert 3.7 km/h
Temperatuur: 2°C
Dauwpunt: 1°C
Vochtigheid: 93%
Barometer: 1025 hPa
Bewolking: Grotendeels bewolkt
Zicht: 5 km
Bewolking: Gedeeltelijk bewolkt 300 ft,
Grotendeels bewolkt 400 ft
EBLG 232250Z VRB02KT 5000 BR SCT003 BKN004 02/01 Q1025 TEMPO 2000 BR
EBCV - Mons/Bergen
Gewijzigd: 23-01-2020 23:55
Nevel, Bewolking  
Nevel, Bewolking  
   Wind: varieert 3.7 km/h
Wind: varieert 3.7 km/h
Temperatuur: 1°C
Dauwpunt: 1°C
Vochtigheid: 100%
Barometer: 1026 hPa
Bewolking: Bewolking
Zicht: 1.1 km
Bewolking: Bewolking 200 ft
EBCV 232255Z AUTO VRB02KT 1100 BR OVC002/// 01/01 Q1026 AMB
EHBK - Maastricht
Gewijzigd: 23-01-2020 23:55
Mist, Bewolking  
Mist, Bewolking  
   Wind: NO 5.6 km/h
Wind: NO 5.6 km/h
Temperatuur: 1°C
Voelt als: -1°C
Dauwpunt: 1°C
Vochtigheid: 100%
Barometer: 1025 hPa
Bewolking: Bewolking
Zicht: 0.6 km
Bewolking: Bewolking
EHBK 232255Z AUTO 05003KT 010V090 0600 R21/0800N FG VV000 01/01 Q1025
ELLX - Luxemburg
Gewijzigd: 23-01-2020 23:50
Nevel, Grotendeels bewolkt  
Nevel, Grotendeels bewolkt  
   Wind: ZO 11.1 km/h
Wind: ZO 11.1 km/h
Temperatuur: -1°C
Voelt als: -5°C
Dauwpunt: -2°C
Vochtigheid: 93%
Barometer: 1025 hPa
Bewolking: Grotendeels bewolkt
Zicht: 4.5 km
Bewolking: Grotendeels bewolkt 400 ft
ELLX 232250Z 14006KT 120V180 4500 BR BKN004 M01/M02 Q1025 NOSIG
EBOS - Oostende
Gewijzigd: 23-01-2020 23:50
Nevel, Grotendeels bewolkt  
Nevel, Grotendeels bewolkt  
   Wind: Oosten 9.3 km/h
Wind: Oosten 9.3 km/h
Temperatuur: 3°C
Voelt als: 1°C
Dauwpunt: 2°C
Vochtigheid: 93%
Barometer: 1026 hPa
Bewolking: Grotendeels bewolkt
Zicht: 3.3 km
Bewolking: Grotendeels bewolkt 700 ft
EBOS 232250Z 10005KT 060V130 3300 BR BKN007 03/02 Q1026 BECMG 2500 BR

Script ontwikkeld door  Saratoga-weather.org Aangepast voor de template door  Weerstation Leuven